Lower Presto, Idaho
Current Conditions -  °F | °C
As of 1:53 AM on Saturday 22 Nov 2014 (Local Time) from KIDA Reporting Station
Overcast Overcast  
Wind Chill: 27°   Ceiling: 6500
Heat Index: 34°   Visibility: 10mi
Dew Point: 26°   Wind: 8mph
Humidity: 73%   Direction: 170°S
Pressure: 29.84"   Gusts: NA
Location:  43.192°N, 111.839°W
Report Text: KIDA 220853Z 17007KT 10SM OVC065 01/M03 A2984 RMK AO2 PRESFR SLP115 T00111033 56017
Loading
Personal Weather Stations






























Interactive Weather Map New forecast layout! Learn more

10-Day Weather Forecast

Advertisements
Track Severe Weather on mobile